createdAt,value
2018-12-16T00:00:58.465Z,99.90
2018-12-16T00:03:27.947Z,99.90
2018-12-16T00:05:57.872Z,99.90
2018-12-16T00:08:27.601Z,99.90
2018-12-16T00:10:57.059Z,99.90
2018-12-16T00:13:26.464Z,99.90
2018-12-16T00:15:55.875Z,99.90
2018-12-16T00:18:25.259Z,99.90
2018-12-16T00:20:54.741Z,99.90
2018-12-16T00:23:24.098Z,99.90
2018-12-16T00:25:53.493Z,99.90
2018-12-16T00:28:22.880Z,99.90
2018-12-16T00:30:52.250Z,99.90
2018-12-16T00:33:21.701Z,99.90
2018-12-16T00:35:51.056Z,99.90
2018-12-16T00:38:20.573Z,99.90
2018-12-16T00:40:50.077Z,99.90
2018-12-16T00:43:19.558Z,99.90
2018-12-16T00:45:48.917Z,99.90
2018-12-16T00:48:18.356Z,99.90
2018-12-16T00:50:47.721Z,99.90
2018-12-16T00:53:17.203Z,99.90
2018-12-16T00:55:46.668Z,99.90
2018-12-16T00:58:16.026Z,99.90
2018-12-16T01:00:45.500Z,99.90
2018-12-16T01:03:14.857Z,99.90
2018-12-16T01:05:44.285Z,99.90
2018-12-16T01:08:13.784Z,99.90
2018-12-16T01:10:43.141Z,99.90
2018-12-16T01:13:12.598Z,99.90
2018-12-16T01:15:41.975Z,99.90
2018-12-16T01:18:11.391Z,99.90
2018-12-16T01:20:40.944Z,99.90
2018-12-16T01:23:10.485Z,99.90
2018-12-16T01:25:39.826Z,99.90
2018-12-16T01:28:10.005Z,99.90
2018-12-16T01:30:39.369Z,99.90
2018-12-16T01:33:08.645Z,99.90
2018-12-16T01:35:38.054Z,99.90
2018-12-16T01:38:07.761Z,99.90
2018-12-16T01:40:37.221Z,99.90
2018-12-16T01:43:06.595Z,99.90
2018-12-16T01:45:36.037Z,99.90
2018-12-16T01:48:05.442Z,99.90
2018-12-16T01:50:34.852Z,99.90
2018-12-16T01:53:04.232Z,99.90
2018-12-16T01:55:33.605Z,99.90
2018-12-16T01:58:03.038Z,99.90
2018-12-16T02:00:32.461Z,99.90
2018-12-16T02:03:02.446Z,99.90
2018-12-16T02:05:31.857Z,99.90
2018-12-16T02:08:01.252Z,99.90
2018-12-16T02:10:30.615Z,99.90
2018-12-16T02:13:00.085Z,99.90
2018-12-16T02:15:29.874Z,99.90
2018-12-16T02:17:59.421Z,99.90
2018-12-16T02:20:28.910Z,99.90
2018-12-16T02:22:58.401Z,99.90
2018-12-16T02:25:27.764Z,99.90
2018-12-16T02:27:57.130Z,99.90
2018-12-16T02:30:28.436Z,99.90
2018-12-16T02:32:57.913Z,99.90
2018-12-16T02:35:27.304Z,99.90
2018-12-16T02:37:56.814Z,99.90
2018-12-16T02:40:26.187Z,99.90
2018-12-16T02:42:55.662Z,99.90
2018-12-16T02:45:25.122Z,99.90
2018-12-16T02:47:54.517Z,99.90
2018-12-16T02:50:24.118Z,99.90
2018-12-16T02:52:53.670Z,99.90
2018-12-16T02:55:23.041Z,99.90
2018-12-16T02:57:52.401Z,99.90
2018-12-16T03:00:21.799Z,99.90
2018-12-16T03:02:51.450Z,99.90
2018-12-16T03:05:20.975Z,99.90
2018-12-16T03:07:50.344Z,99.90
2018-12-16T03:10:19.803Z,99.90
2018-12-16T03:12:49.174Z,99.90
2018-12-16T03:15:18.544Z,99.90
2018-12-16T03:17:48.060Z,99.90
2018-12-16T03:20:17.553Z,99.90
2018-12-16T03:22:47.022Z,99.90
2018-12-16T03:25:16.391Z,99.90
2018-12-16T03:27:45.793Z,99.90
2018-12-16T03:30:15.179Z,99.90
2018-12-16T03:32:44.779Z,99.90
2018-12-16T03:35:14.230Z,99.90
2018-12-16T03:37:43.589Z,99.90
2018-12-16T03:40:13.067Z,99.90
2018-12-16T03:42:42.562Z,99.90
2018-12-16T03:45:12.002Z,99.90
2018-12-16T03:47:41.458Z,99.90
2018-12-16T03:50:10.828Z,99.90
2018-12-16T03:52:40.184Z,99.90
2018-12-16T03:55:09.679Z,99.90
2018-12-16T03:57:39.271Z,99.90
2018-12-16T04:00:08.724Z,99.90
2018-12-16T04:02:38.100Z,99.90
2018-12-16T04:05:07.609Z,99.90
2018-12-16T04:07:36.978Z,99.90
2018-12-16T04:10:06.841Z,99.90
2018-12-16T04:12:36.365Z,99.90
2018-12-16T04:15:06.565Z,99.90
2018-12-16T04:17:36.077Z,99.90
2018-12-16T04:20:06.158Z,99.90
2018-12-16T04:22:35.536Z,99.90
2018-12-16T04:25:05.485Z,99.90
2018-12-16T04:27:34.986Z,99.90
2018-12-16T04:30:05.438Z,99.90
2018-12-16T04:32:34.935Z,99.90
2018-12-16T04:35:05.802Z,99.90
2018-12-16T04:37:35.185Z,99.90
2018-12-16T04:40:04.977Z,99.90
2018-12-16T04:42:35.472Z,99.90
2018-12-16T04:45:05.312Z,99.90
2018-12-16T04:47:34.831Z,99.90
2018-12-16T04:50:04.625Z,99.90
2018-12-16T04:52:34.117Z,99.90
2018-12-16T04:55:03.631Z,99.90
2018-12-16T04:57:33.013Z,99.90
2018-12-16T05:00:02.391Z,99.90
2018-12-16T05:02:31.733Z,99.90
2018-12-16T05:05:01.111Z,99.90
2018-12-16T05:07:30.465Z,99.90
2018-12-16T05:10:09.987Z,99.90
2018-12-16T05:12:39.481Z,99.90
2018-12-16T05:15:08.898Z,99.90
2018-12-16T05:17:38.518Z,99.90
2018-12-16T05:20:07.995Z,99.90
2018-12-16T05:22:37.374Z,99.90
2018-12-16T05:25:06.829Z,99.90
2018-12-16T05:27:36.433Z,99.90
2018-12-16T05:30:06.162Z,99.90
2018-12-16T05:32:35.607Z,99.90
2018-12-16T05:35:05.431Z,99.90
2018-12-16T05:37:34.796Z,99.90
2018-12-16T05:40:04.389Z,99.90
2018-12-16T05:42:33.742Z,99.90
2018-12-16T05:45:03.148Z,99.90
2018-12-16T05:47:32.733Z,99.90
2018-12-16T05:50:02.445Z,99.90
2018-12-16T05:52:31.789Z,99.90
2018-12-16T05:55:01.178Z,99.90
2018-12-16T05:57:30.849Z,99.90
2018-12-16T06:00:00.311Z,99.90
2018-12-16T06:02:29.801Z,99.90
2018-12-16T06:04:59.265Z,99.90
2018-12-16T06:07:28.656Z,99.90
2018-12-16T06:09:58.034Z,99.90
2018-12-16T06:12:27.413Z,99.90
2018-12-16T06:14:56.979Z,99.90
2018-12-16T06:17:26.313Z,99.90
2018-12-16T06:19:55.680Z,99.90
2018-12-16T06:22:25.113Z,99.90
2018-12-16T06:24:54.653Z,99.90
2018-12-16T06:27:24.049Z,99.90
2018-12-16T06:29:53.572Z,99.90
2018-12-16T06:32:22.905Z,99.90
2018-12-16T06:34:52.341Z,99.90
2018-12-16T06:37:21.825Z,99.90
2018-12-16T06:39:51.207Z,99.90
2018-12-16T06:42:20.610Z,99.90
2018-12-16T06:44:50.029Z,99.90
2018-12-16T06:47:19.485Z,99.90
2018-12-16T06:49:48.856Z,99.90
2018-12-16T06:52:18.319Z,99.90
2018-12-16T06:54:47.737Z,99.90
2018-12-16T06:57:17.121Z,99.90
2018-12-16T06:59:46.493Z,99.90
2018-12-16T07:02:15.857Z,99.90
2018-12-16T07:04:45.227Z,99.90
2018-12-16T07:07:14.829Z,99.90
2018-12-16T07:09:44.185Z,99.90
2018-12-16T07:12:13.550Z,99.90
2018-12-16T07:14:42.897Z,99.90
2018-12-16T07:17:12.434Z,99.90
2018-12-16T07:19:41.942Z,99.90
2018-12-16T07:22:11.497Z,99.90
2018-12-16T07:24:40.966Z,99.90
2018-12-16T07:27:10.382Z,99.90
2018-12-16T07:29:39.741Z,99.90
2018-12-16T07:32:09.084Z,99.90
2018-12-16T07:34:38.698Z,99.90
2018-12-16T07:37:08.154Z,99.90
2018-12-16T07:39:37.673Z,99.90
2018-12-16T07:42:07.048Z,99.90
2018-12-16T07:44:36.633Z,99.90
2018-12-16T07:47:06.101Z,99.90
2018-12-16T07:49:35.504Z,99.90
2018-12-16T07:52:04.882Z,99.90
2018-12-16T07:54:34.506Z,99.90
2018-12-16T07:57:03.848Z,99.90
2018-12-16T07:59:33.209Z,99.90
2018-12-16T08:02:02.617Z,99.90
2018-12-16T08:04:31.992Z,99.90
2018-12-16T08:07:01.381Z,99.90
2018-12-16T08:09:31.182Z,99.90
2018-12-16T08:12:00.548Z,99.90
2018-12-16T08:14:29.909Z,99.90
2018-12-16T08:16:59.333Z,99.90
2018-12-16T08:19:29.182Z,99.90
2018-12-16T08:21:58.726Z,99.90
2018-12-16T08:24:28.076Z,99.90
2018-12-16T08:26:57.544Z,99.90
2018-12-16T08:29:33.441Z,99.90
2018-12-16T08:32:02.952Z,99.90
2018-12-16T08:34:32.461Z,99.90
2018-12-16T08:37:01.941Z,99.90
2018-12-16T08:39:31.545Z,99.90
2018-12-16T08:42:00.964Z,99.90
2018-12-16T08:44:30.441Z,99.90
2018-12-16T08:46:59.847Z,99.90
2018-12-16T08:49:29.246Z,99.90
2018-12-16T08:51:58.596Z,99.90
2018-12-16T08:54:30.181Z,99.90
2018-12-16T08:56:59.373Z,99.90
2018-12-16T08:59:28.765Z,99.90
2018-12-16T09:01:58.135Z,99.90
2018-12-16T09:04:27.617Z,99.90
2018-12-16T09:06:57.368Z,99.90
2018-12-16T09:09:27.159Z,99.90
2018-12-16T09:11:56.631Z,99.90
2018-12-16T09:14:26.016Z,99.90
2018-12-16T09:16:55.379Z,99.90
2018-12-16T09:19:24.833Z,99.90
2018-12-16T09:21:54.217Z,99.90
2018-12-16T09:24:23.675Z,99.90
2018-12-16T09:26:53.054Z,99.90
2018-12-16T09:29:22.417Z,99.90
2018-12-16T09:31:51.796Z,99.90
2018-12-16T09:34:21.181Z,99.90
2018-12-16T09:36:50.561Z,99.90
2018-12-16T09:39:19.918Z,99.90
2018-12-16T09:41:49.373Z,99.90
2018-12-16T09:44:18.748Z,99.90
2018-12-16T09:46:48.139Z,99.90
2018-12-16T09:49:17.534Z,99.90
2018-12-16T09:51:46.905Z,99.90
2018-12-16T09:54:16.360Z,99.90
2018-12-16T09:56:45.739Z,99.90
2018-12-16T09:59:15.109Z,99.90
2018-12-16T10:01:44.594Z,99.90
2018-12-16T10:04:13.857Z,99.90
2018-12-16T10:06:43.362Z,99.90
2018-12-16T10:09:12.729Z,99.90
2018-12-16T10:11:42.162Z,99.90
2018-12-16T10:14:11.555Z,99.90
2018-12-16T10:16:40.904Z,99.90
2018-12-16T10:19:10.412Z,99.90
2018-12-16T10:21:39.881Z,99.90
2018-12-16T10:24:09.261Z,99.90
2018-12-16T10:26:38.766Z,99.90
2018-12-16T10:29:08.168Z,99.90
2018-12-16T10:31:37.449Z,99.90
2018-12-16T10:34:06.914Z,99.90
2018-12-16T10:36:36.370Z,99.90
2018-12-16T10:39:07.912Z,99.90
2018-12-16T10:41:37.356Z,99.90
2018-12-16T10:44:06.725Z,99.90
2018-12-16T10:46:36.197Z,99.90
2018-12-16T10:49:05.788Z,99.90
2018-12-16T10:51:35.153Z,99.90
2018-12-16T10:54:04.752Z,99.90
2018-12-16T10:56:34.200Z,99.90
2018-12-16T10:59:03.613Z,98.90
2018-12-16T11:01:32.983Z,99.00
2018-12-16T11:04:02.243Z,98.90
2018-12-16T11:06:33.458Z,97.40
2018-12-16T11:09:04.447Z,97.60
2018-12-16T11:11:33.796Z,97.40
2018-12-16T11:14:03.200Z,99.20
2018-12-16T11:16:33.675Z,96.80
2018-12-16T11:19:05.803Z,94.80
2018-12-16T11:21:35.715Z,97.00
2018-12-16T11:24:05.508Z,93.30
2018-12-16T11:26:35.388Z,92.10
2018-12-16T11:29:04.801Z,93.20
2018-12-16T11:31:34.189Z,95.30
2018-12-16T11:34:03.585Z,95.70
2018-12-16T11:36:32.970Z,95.00
2018-12-16T11:39:02.609Z,95.30
2018-12-16T11:41:32.154Z,93.60
2018-12-16T11:44:01.571Z,93.10
2018-12-16T11:46:31.419Z,94.30
2018-12-16T11:49:00.833Z,93.30
2018-12-16T11:51:30.333Z,94.20
2018-12-16T11:53:59.757Z,94.60
2018-12-16T11:56:29.286Z,93.20
2018-12-16T11:58:58.744Z,91.20
2018-12-16T12:01:28.114Z,90.50
2018-12-16T12:03:57.641Z,91.00
2018-12-16T12:06:27.046Z,90.90
2018-12-16T12:08:56.441Z,88.90
2018-12-16T12:11:25.966Z,89.20
2018-12-16T12:13:55.461Z,88.30
2018-12-16T12:16:24.977Z,87.00
2018-12-16T12:19:01.166Z,90.10
2018-12-16T12:21:30.693Z,90.80
2018-12-16T12:24:00.253Z,91.30
2018-12-16T12:26:29.686Z,91.70
2018-12-16T12:28:59.130Z,92.60
2018-12-16T12:31:28.621Z,92.80
2018-12-16T12:33:58.009Z,93.40
2018-12-16T12:36:27.541Z,94.00
2018-12-16T12:38:56.913Z,94.60
2018-12-16T12:41:26.522Z,95.50
2018-12-16T12:43:55.905Z,95.90
2018-12-16T12:46:25.722Z,95.50
2018-12-16T12:48:55.209Z,95.90
2018-12-16T12:51:24.594Z,95.90
2018-12-16T12:53:54.176Z,95.00
2018-12-16T12:56:23.708Z,95.30
2018-12-16T12:58:53.191Z,96.00
2018-12-16T13:01:22.670Z,96.20
2018-12-16T13:03:52.236Z,95.80
2018-12-16T13:06:21.653Z,97.40
2018-12-16T13:08:51.045Z,97.60
2018-12-16T13:11:20.426Z,96.10
2018-12-16T13:13:50.573Z,95.90
2018-12-16T13:16:22.715Z,96.00
2018-12-16T13:18:52.190Z,97.60
2018-12-16T13:21:21.696Z,97.70
2018-12-16T13:23:51.084Z,98.00
2018-12-16T13:26:20.493Z,97.60
2018-12-16T13:28:49.958Z,97.80
2018-12-16T13:31:19.329Z,97.70
2018-12-16T13:33:48.681Z,97.60
2018-12-16T13:36:18.089Z,98.70
2018-12-16T13:38:47.453Z,99.90
2018-12-16T13:41:16.838Z,99.40
2018-12-16T13:43:46.217Z,99.40
2018-12-16T13:46:15.697Z,97.50
2018-12-16T13:48:45.287Z,96.20
2018-12-16T13:51:14.693Z,94.40
2018-12-16T13:53:44.086Z,93.90
2018-12-16T13:56:13.497Z,94.20
2018-12-16T13:58:42.898Z,95.30
2018-12-16T14:01:12.397Z,96.10
2018-12-16T14:03:41.825Z,96.70
2018-12-16T14:06:11.377Z,97.90
2018-12-16T14:08:40.781Z,99.80
2018-12-16T14:11:10.202Z,99.90
2018-12-16T14:13:39.597Z,99.90
2018-12-16T14:16:08.989Z,99.80
2018-12-16T14:18:38.382Z,98.60
2018-12-16T14:21:07.766Z,99.20
2018-12-16T14:23:37.258Z,99.90
2018-12-16T14:26:06.733Z,99.90
2018-12-16T14:28:36.129Z,99.90
2018-12-16T14:31:05.781Z,99.90
2018-12-16T14:33:35.346Z,99.90
2018-12-16T14:36:04.761Z,99.90
2018-12-16T14:38:34.465Z,99.90
2018-12-16T14:41:03.881Z,99.90
2018-12-16T14:43:33.243Z,99.90
2018-12-16T14:46:02.624Z,99.90
2018-12-16T14:48:31.993Z,99.90
2018-12-16T14:51:01.393Z,99.90
2018-12-16T14:53:30.897Z,99.90
2018-12-16T14:56:00.277Z,99.90
2018-12-16T14:58:29.664Z,99.90
2018-12-16T15:00:59.062Z,99.90
2018-12-16T15:03:28.464Z,99.90
2018-12-16T15:05:57.836Z,99.90
2018-12-16T15:08:27.522Z,99.90
2018-12-16T15:10:57.043Z,99.90
2018-12-16T15:13:26.541Z,99.90
2018-12-16T15:15:56.004Z,99.90
2018-12-16T15:18:25.561Z,99.90
2018-12-16T15:20:55.066Z,99.90
2018-12-16T15:23:24.638Z,99.90
2018-12-16T15:25:54.034Z,99.90
2018-12-16T15:28:23.408Z,99.90
2018-12-16T15:30:52.815Z,99.90
2018-12-16T15:33:22.209Z,99.90
2018-12-16T15:35:51.705Z,99.90
2018-12-16T15:38:21.369Z,99.90
2018-12-16T15:40:50.773Z,99.90
2018-12-16T15:43:20.178Z,99.90
2018-12-16T15:45:49.600Z,99.90
2018-12-16T15:48:19.424Z,99.90
2018-12-16T15:50:48.899Z,99.90
2018-12-16T15:53:18.376Z,99.90
2018-12-16T15:55:47.670Z,99.90
2018-12-16T15:58:17.200Z,99.90
2018-12-16T16:00:46.681Z,99.90
2018-12-16T16:03:16.122Z,99.90
2018-12-16T16:05:45.593Z,99.90
2018-12-16T16:08:16.526Z,99.90
2018-12-16T16:10:46.318Z,99.90
2018-12-16T16:13:15.807Z,99.90
2018-12-16T16:15:46.173Z,99.90
2018-12-16T16:18:15.577Z,99.90
2018-12-16T16:20:45.003Z,99.90
2018-12-16T16:23:14.537Z,99.90
2018-12-16T16:25:44.038Z,99.90
2018-12-16T16:28:13.677Z,99.90
2018-12-16T16:30:43.099Z,99.90
2018-12-16T16:33:12.803Z,99.90
2018-12-16T16:35:42.302Z,99.90
2018-12-16T16:38:11.717Z,99.90
2018-12-16T16:40:41.361Z,99.90
2018-12-16T16:43:10.861Z,99.90
2018-12-16T16:45:40.456Z,99.90
2018-12-16T16:48:09.994Z,99.90
2018-12-16T16:50:39.594Z,99.90
2018-12-16T16:53:09.250Z,99.90
2018-12-16T16:55:38.851Z,99.90
2018-12-16T16:58:08.288Z,99.90
2018-12-16T17:00:38.033Z,99.90
2018-12-16T17:03:07.607Z,99.90
2018-12-16T17:05:37.501Z,99.90
2018-12-16T17:08:07.034Z,99.90
2018-12-16T17:10:36.654Z,99.90
2018-12-16T17:13:06.504Z,99.90
2018-12-16T17:15:36.694Z,99.90
2018-12-16T17:18:06.494Z,99.90
2018-12-16T17:20:36.653Z,99.90
2018-12-16T17:23:06.553Z,99.90
2018-12-16T17:25:38.388Z,99.90
2018-12-16T17:28:09.443Z,99.90
2018-12-16T17:30:40.224Z,99.90
2018-12-16T17:33:09.987Z,99.90
2018-12-16T17:35:39.905Z,99.90
2018-12-16T17:38:09.380Z,99.90
2018-12-16T17:40:38.802Z,99.90
2018-12-16T17:43:08.221Z,99.90
2018-12-16T17:45:37.628Z,99.90
2018-12-16T17:48:07.296Z,99.90
2018-12-16T17:50:36.785Z,99.90
2018-12-16T17:53:07.815Z,99.90
2018-12-16T17:55:37.201Z,99.90
2018-12-16T17:58:06.765Z,99.90
2018-12-16T18:00:36.289Z,99.90
2018-12-16T18:03:05.572Z,99.90
2018-12-16T18:05:35.263Z,99.90
2018-12-16T18:08:04.685Z,99.90
2018-12-16T18:10:34.155Z,99.90
2018-12-16T18:13:03.668Z,99.90
2018-12-16T18:15:33.239Z,99.90
2018-12-16T18:18:02.820Z,99.90
2018-12-16T18:20:32.294Z,99.90
2018-12-16T18:23:07.722Z,99.90
2018-12-16T18:25:37.217Z,99.90
2018-12-16T18:28:06.662Z,99.90
2018-12-16T18:30:36.035Z,99.90
2018-12-16T18:33:05.606Z,99.90
2018-12-16T18:35:34.976Z,99.90
2018-12-16T18:38:04.534Z,99.90
2018-12-16T18:40:34.052Z,99.90
2018-12-16T18:43:03.571Z,99.90
2018-12-16T18:45:33.218Z,99.90
2018-12-16T18:48:03.010Z,99.90
2018-12-16T18:50:32.334Z,99.90
2018-12-16T18:53:01.755Z,99.90
2018-12-16T18:55:31.237Z,99.90
2018-12-16T18:58:00.757Z,99.90
2018-12-16T19:00:30.178Z,99.90
2018-12-16T19:02:59.542Z,99.90
2018-12-16T19:05:28.965Z,99.90
2018-12-16T19:07:58.661Z,99.90
2018-12-16T19:10:28.073Z,99.90
2018-12-16T19:12:57.473Z,99.90
2018-12-16T19:15:27.491Z,99.90
2018-12-16T19:17:57.060Z,99.90
2018-12-16T19:20:26.578Z,99.90
2018-12-16T19:22:56.106Z,99.90
2018-12-16T19:25:25.592Z,99.90
2018-12-16T19:27:55.086Z,99.90
2018-12-16T19:30:24.977Z,99.90
2018-12-16T19:32:54.593Z,99.90
2018-12-16T19:35:24.192Z,99.90
2018-12-16T19:37:53.562Z,99.90
2018-12-16T19:40:22.969Z,99.90
2018-12-16T19:42:52.411Z,99.90
2018-12-16T19:45:22.075Z,99.90
2018-12-16T19:47:51.466Z,99.90
2018-12-16T19:50:20.925Z,99.90
2018-12-16T19:52:50.490Z,99.90
2018-12-16T19:55:20.717Z,99.90
2018-12-16T19:57:50.109Z,99.90
2018-12-16T20:00:19.593Z,99.90
2018-12-16T20:02:49.136Z,99.90
2018-12-16T20:05:20.690Z,99.90
2018-12-16T20:07:50.349Z,99.90
2018-12-16T20:10:19.756Z,99.90
2018-12-16T20:12:49.358Z,99.90
2018-12-16T20:15:18.933Z,99.90
2018-12-16T20:17:48.427Z,99.90
2018-12-16T20:20:17.997Z,99.90
2018-12-16T20:22:48.217Z,99.90
2018-12-16T20:25:17.725Z,99.90
2018-12-16T20:27:47.232Z,99.90
2018-12-16T20:30:16.737Z,99.90
2018-12-16T20:32:46.522Z,99.90
2018-12-16T20:35:16.173Z,99.90
2018-12-16T20:37:46.069Z,99.90
2018-12-16T20:40:15.482Z,99.90
2018-12-16T20:42:44.859Z,99.90
2018-12-16T20:45:14.357Z,99.90
2018-12-16T20:47:43.857Z,99.90
2018-12-16T20:50:13.565Z,99.90
2018-12-16T20:52:42.969Z,99.90
2018-12-16T20:55:12.509Z,99.90
2018-12-16T20:57:41.878Z,99.90
2018-12-16T21:00:11.777Z,99.90
2018-12-16T21:02:41.270Z,99.90
2018-12-16T21:05:10.666Z,99.90
2018-12-16T21:07:40.149Z,99.90
2018-12-16T21:10:09.754Z,99.90
2018-12-16T21:12:44.615Z,99.90
2018-12-16T21:16:24.386Z,99.90
2018-12-16T21:18:53.892Z,99.90
2018-12-16T21:21:23.285Z,99.90
2018-12-16T21:23:53.050Z,99.90
2018-12-16T21:26:22.694Z,99.90
2018-12-16T21:28:52.133Z,99.90
2018-12-16T21:31:21.510Z,99.90
2018-12-16T21:33:50.890Z,99.90
2018-12-16T21:36:20.574Z,99.90
2018-12-16T21:38:49.931Z,99.90
2018-12-16T21:41:19.304Z,99.90
2018-12-16T21:43:48.783Z,99.90
2018-12-16T21:46:18.161Z,99.90
2018-12-16T21:48:47.644Z,99.90
2018-12-16T21:51:18.005Z,99.90
2018-12-16T21:53:49.631Z,99.90
2018-12-16T21:56:19.256Z,99.90
2018-12-16T21:58:48.666Z,99.90
2018-12-16T22:01:18.078Z,99.90
2018-12-16T22:03:47.591Z,99.90
2018-12-16T22:06:16.960Z,99.90
2018-12-16T22:08:46.353Z,99.90
2018-12-16T22:11:15.854Z,99.90
2018-12-16T22:13:45.221Z,99.90
2018-12-16T22:16:14.701Z,99.90
2018-12-16T22:18:44.073Z,99.90
2018-12-16T22:21:13.465Z,99.90
2018-12-16T22:23:42.830Z,99.90
2018-12-16T22:26:12.307Z,99.90
2018-12-16T22:28:41.705Z,99.90
2018-12-16T22:31:11.085Z,99.90
2018-12-16T22:33:40.469Z,99.90
2018-12-16T22:36:09.873Z,99.90
2018-12-16T22:38:39.343Z,99.90
2018-12-16T22:41:08.723Z,99.90
2018-12-16T22:43:38.105Z,99.90
2018-12-16T22:46:07.502Z,99.90
2018-12-16T22:48:37.104Z,99.90
2018-12-16T22:51:06.517Z,99.90
2018-12-16T22:53:35.901Z,99.90
2018-12-16T22:56:05.389Z,99.90
2018-12-16T22:58:34.968Z,99.90
2018-12-16T23:01:09.838Z,99.90
2018-12-16T23:03:39.320Z,99.90
2018-12-16T23:06:08.793Z,99.90
2018-12-16T23:08:38.168Z,99.90
2018-12-16T23:11:07.553Z,99.90
2018-12-16T23:13:36.924Z,99.90
2018-12-16T23:16:06.486Z,99.90
2018-12-16T23:18:35.967Z,99.90
2018-12-16T23:21:05.490Z,99.90
2018-12-16T23:23:34.900Z,99.90
2018-12-16T23:26:04.300Z,99.90
2018-12-16T23:28:33.698Z,99.90
2018-12-16T23:31:03.068Z,99.90
2018-12-16T23:33:32.553Z,99.90
2018-12-16T23:36:02.235Z,99.90
2018-12-16T23:38:31.661Z,99.90
2018-12-16T23:41:02.056Z,99.90
2018-12-16T23:43:31.453Z,99.90
2018-12-16T23:46:00.825Z,99.90
2018-12-16T23:48:30.197Z,99.90
2018-12-16T23:50:59.574Z,99.90
2018-12-16T23:53:28.949Z,99.90
2018-12-16T23:55:58.328Z,99.90
2018-12-16T23:58:27.796Z,99.90
